Anch, Alaska
Current Conditions -  °F | °C
As of 9:28 AM on Sunday 21 Dec 2014 (Local Time) from PAED Reporting Station
Light Snow Light Snow  
Wind Chill: -5°   Ceiling: 3000
Heat Index: -5°   Visibility: 8mi
Dew Point: -6°   Wind: 3mph
Humidity: 93%   Direction: 50°NE
Pressure: 29.18"   Gusts: NA
Location:  61.2265°N, 149.62°W
Report Text: PAED 211828Z 05003KT 8SM -SN OVC030 M05/M06 A2918 RMK AO2A CIG 009 RWY24
Loading
Personal Weather Stations






























Interactive Weather Map New forecast layout! Learn more

10-Day Weather Forecast

Advertisements
Track Severe Weather on mobile